Time;durP1;ratioP1;P1;durP2;ratioP2;P2;SDS_P1;SDS_P2;PMS_P1;PMS_P2;Temp;Humidity;BMP_temperature;BMP_pressure;BME280_temperature;BME280_humidity;BME280_pressure;Samples;Min_cycle;Max_cycle;Signal;HPM_P1;HPM_P2
2023/02/19 00:02:07;;;;;;;;;;;;;;;26.63;35.96;94980.81;4913320;29;7126;-66
2023/02/19 00:04:36;;;;;;;;;;;;;;;26.63;36.76;94978.81;4929504;29;8679;-66
2023/02/19 00:07:02;;;;;;;;;;;;;;;26.61;36.33;94970.28;4923626;29;7117;-65
2023/02/19 00:09:28;;;;;;;;;;;;;;;26.63;35.88;94972.53;4930732;29;9073;-66
2023/02/19 00:11:56;;;;;;;;;;;;;;;26.61;35.96;94970.28;4930088;29;9138;-66
2023/02/19 00:14:22;;;;;;;;;;;;;;;26.62;36.52;94966.25;4929408;29;8996;-65
2023/02/19 00:16:49;;;;;;;;;;;;;;;26.62;36.59;94963.50;4905644;29;7252;-65
2023/02/19 00:19:18;;;;;;;;;;;;;;;26.60;36.16;94951.50;4928438;29;9334;-65
2023/02/19 00:22:03;;;;;;;;;;;;;;;26.61;36.63;94952.97;4932404;29;9150;-65
2023/02/19 00:24:39;;;;;;;;;;;;;;;26.61;36.55;94961.25;4933582;29;9479;-65
2023/02/19 00:27:14;;;;;;;;;;;;;;;26.61;36.33;94955.72;4965164;28;7260;-66
2023/02/19 00:29:45;;;;;;;;;;;;;;;26.63;36.46;94959.50;4974633;28;8582;-65
2023/02/19 00:32:15;;;;;;;;;;;;;;;26.61;36.65;94964.00;4957044;28;7038;-66
2023/02/19 00:34:51;;;;;;;;;;;;;;;26.59;36.71;94961.75;4977689;28;9025;-65
2023/02/19 00:37:19;;;;;;;;;;;;;;;26.59;35.99;94963.75;4959231;28;7229;-65
2023/02/19 00:39:45;;;;;;;;;;;;;;;26.60;36.56;94966.00;4962175;28;7052;-65
2023/02/19 00:42:13;;;;;;;;;;;;;;;26.61;36.48;94964.75;4958551;28;9042;-65
2023/02/19 00:44:40;;;;;;;;;;;;;;;26.62;36.25;94960.00;4952247;28;9026;-65
2023/02/19 00:47:08;;;;;;;;;;;;;;;26.61;36.46;94959.25;4957710;28;7259;-66
2023/02/19 00:49:34;;;;;;;;;;;;;;;26.61;36.12;94958.50;4951182;28;9024;-65
2023/02/19 00:51:59;;;;;;;;;;;;;;;26.58;36.40;94951.97;4966651;28;9060;-65
2023/02/19 00:54:26;;;;;;;;;;;;;;;26.60;35.87;94954.25;4966151;28;7221;-65
2023/02/19 00:56:52;;;;;;;;;;;;;;;26.58;36.27;94943.69;4950603;28;8715;-65
2023/02/19 00:59:18;;;;;;;;;;;;;;;26.59;35.88;94942.44;4970233;28;9044;-65
2023/02/19 01:01:44;;;;;;;;;;;;;;;26.60;36.05;94940.44;4949910;29;9078;-65
2023/02/19 01:04:15;;;;;;;;;;;;;;;26.58;36.86;94937.41;4972821;28;9309;-65
2023/02/19 01:06:57;;;;;;;;;;;;;;;26.58;36.10;94946.44;4960253;28;7056;-65
2023/02/19 01:09:41;;;;;;;;;;;;;;;26.56;36.57;94940.69;4958008;28;7045;-65
2023/02/19 01:12:11;;;;;;;;;;;;;;;26.58;36.09;94942.94;4974049;28;8692;-65
2023/02/19 01:14:37;;;;;;;;;;;;;;;26.59;36.75;94941.69;4974596;28;7506;-65
2023/02/19 01:17:15;;;;;;;;;;;;;;;26.60;36.01;94940.44;4960535;28;7263;-65
2023/02/19 01:19:43;;;;;;;;;;;;;;;26.57;36.08;94936.69;4957417;28;8635;-65
2023/02/19 01:22:20;;;;;;;;;;;;;;;26.59;36.68;94944.44;4954354;28;7381;-65
2023/02/19 01:24:48;;;;;;;;;;;;;;;26.56;36.73;94935.16;4969714;28;9063;-65
2023/02/19 01:28:08;;;;;;;;;;;;;;;26.59;36.02;94939.69;4956825;28;8742;-65
2023/02/19 01:30:38;;;;;;;;;;;;;;;26.58;35.99;94932.66;4952924;28;7244;-65
2023/02/19 01:33:09;;;;;;;;;;;;;;;26.57;36.58;94936.69;4956090;28;7359;-65
2023/02/19 01:35:43;;;;;;;;;;;;;;;26.57;36.61;94930.41;4966509;28;9042;-65
2023/02/19 01:38:09;;;;;;;;;;;;;;;26.57;36.12;94919.38;4969484;28;7107;-65
2023/02/19 01:40:56;;;;;;;;;;;;;;;26.57;36.74;94922.13;4972922;28;7025;-65
2023/02/19 01:43:26;;;;;;;;;;;;;;;26.56;36.72;94920.63;4973235;28;7288;-65
2023/02/19 01:46:09;;;;;;;;;;;;;;;26.56;36.01;94912.34;4958790;28;8236;-65
2023/02/19 01:49:27;;;;;;;;;;;;;;;26.57;35.96;94913.84;4966758;28;8821;-65
2023/02/19 01:52:17;;;;;;;;;;;;;;;26.56;36.69;94918.63;4943841;28;7208;-65
2023/02/19 01:55:06;;;;;;;;;;;;;;;26.55;36.12;94906.09;4934605;29;7651;-65
2023/02/19 01:57:46;;;;;;;;;;;;;;;26.55;36.36;94899.81;4936225;29;8193;-65
2023/02/19 02:00:29;;;;;;;;;;;;;;;26.54;36.03;94910.09;4936940;29;7281;-65
2023/02/19 02:03:07;;;;;;;;;;;;;;;26.55;36.11;94914.38;4933452;29;7257;-65
2023/02/19 02:05:40;;;;;;;;;;;;;;;26.54;36.13;94906.56;4940093;28;7113;-66
2023/02/19 02:10:53;;;;;;;;;;;;;;;26.50;36.43;94912.38;4927564;28;9507;-65
2023/02/19 02:13:20;;;;;;;;;;;;;;;26.47;36.37;94905.09;4940628;28;8698;-65
2023/02/19 02:16:09;;;;;;;;;;;;;;;26.46;36.89;94909.13;4919320;28;9381;-66
2023/02/19 02:18:45;;;;;;;;;;;;;;;26.51;36.53;94910.38;4926926;29;8983;-65
2023/02/19 02:25:03;;;;;;;;;;;;;;;26.48;36.42;94894.81;4878066;29;8821;-65
2023/02/19 02:27:42;;;;;;;;;;;;;;;26.52;36.03;94892.53;4889926;29;7189;-65
2023/02/19 02:30:31;;;;;;;;;;;;;;;26.52;36.52;94881.50;4897671;29;7234;-65
2023/02/19 02:33:21;;;;;;;;;;;;;;;26.51;36.23;94888.28;4884058;29;9140;-65
2023/02/19 02:36:07;;;;;;;;;;;;;;;26.51;36.54;94882.78;4891707;29;8959;-65
2023/02/19 02:39:06;;;;;;;;;;;;;;;26.45;36.11;94874.50;4894830;29;7376;-65
2023/02/19 02:41:44;;;;;;;;;;;;;;;26.48;36.66;94875.50;4889976;29;9055;-65
2023/02/19 02:44:12;;;;;;;;;;;;;;;26.47;36.54;94880.25;4882569;29;8912;-65
2023/02/19 02:47:39;;;;;;;;;;;;;;;26.47;36.33;94874.00;4893743;29;7203;-65
2023/02/19 02:50:40;;;;;;;;;;;;;;;26.46;36.09;94861.47;4894399;29;9446;-65
2023/02/19 02:56:43;;;;;;;;;;;;;;;26.46;36.16;94842.16;4878678;29;9120;-65
2023/02/19 02:59:31;;;;;;;;;;;;;;;26.46;36.68;94837.41;4879163;29;7223;-65
2023/02/19 03:05:51;;;;;;;;;;;;;;;26.45;36.63;94837.88;4873923;29;9226;-65
2023/02/19 03:08:46;;;;;;;;;;;;;;;26.44;36.24;94833.63;4863359;29;7037;-65
2023/02/19 03:20:00;;;;;;;;;;;;;;;26.41;36.47;94862.22;4879315;29;9245;-65
2023/02/19 03:22:39;;;;;;;;;;;;;;;26.40;36.25;94855.22;4868606;29;7435;-65
2023/02/19 03:31:26;;;;;;;;;;;;;;;26.39;36.30;94851.69;4932109;29;8827;-66
2023/02/19 03:34:07;;;;;;;;;;;;;;;26.38;36.62;94852.22;4934495;29;7574;-65
2023/02/19 03:37:12;;;;;;;;;;;;;;;26.40;36.46;94855.22;4935502;29;7168;-65
2023/02/19 03:40:07;;;;;;;;;;;;;;;26.41;36.67;94856.69;4905173;29;9560;-65
2023/02/19 03:46:44;;;;;;;;;;;;;;;26.41;37.03;94870.50;4887419;29;6997;-65
2023/02/19 03:53:03;;;;;;;;;;;;;;;26.36;36.16;94866.50;4888575;29;7385;-65
2023/02/19 03:55:33;;;;;;;;;;;;;;;26.35;36.17;94858.72;4887447;29;7278;-65
2023/02/19 03:58:26;;;;;;;;;;;;;;;26.33;36.62;94850.97;4886649;29;7269;-65
2023/02/19 04:01:29;;;;;;;;;;;;;;;26.36;36.54;94843.69;4863195;29;9066;-65
2023/02/19 04:04:21;;;;;;;;;;;;;;;26.36;36.78;94838.19;4892934;29;9014;-65
2023/02/19 04:07:05;;;;;;;;;;;;;;;26.39;36.05;94850.94;4862478;29;8718;-65
2023/02/19 04:09:37;;;;;;;;;;;;;;;26.34;36.04;94863.50;4875576;29;8829;-65
2023/02/19 04:12:06;;;;;;;;;;;;;;;26.33;36.17;94883.31;4859838;29;9153;-65
2023/02/19 04:14:45;;;;;;;;;;;;;;;26.35;36.07;94886.31;4906696;29;8659;-65
2023/02/19 04:17:20;;;;;;;;;;;;;;;26.35;36.99;94894.59;4923419;28;7244;-66
2023/02/19 04:19:51;;;;;;;;;;;;;;;26.36;36.36;94887.81;4931847;29;8819;-65
2023/02/19 04:22:21;;;;;;;;;;;;;;;26.36;36.74;94885.06;4944873;28;9180;-65
2023/02/19 04:25:13;;;;;;;;;;;;;;;26.34;36.77;94882.06;4952694;28;7026;-65
2023/02/19 04:27:57;;;;;;;;;;;;;;;26.36;36.30;94876.78;4953145;28;8741;-66
2023/02/19 04:30:36;;;;;;;;;;;;;;;26.33;36.48;94877.78;4963478;28;7447;-66
2023/02/19 04:33:11;;;;;;;;;;;;;;;26.33;36.89;94872.28;4955446;28;7507;-66
2023/02/19 04:36:10;;;;;;;;;;;;;;;26.31;36.16;94877.53;4970038;28;9479;-65
2023/02/19 04:38:46;;;;;;;;;;;;;;;26.31;36.75;94875.53;4933302;29;7031;-65
2023/02/19 04:41:24;;;;;;;;;;;;;;;26.29;36.15;94858.00;4926004;29;7289;-65
2023/02/19 04:43:50;;;;;;;;;;;;;;;26.29;36.28;94846.97;4931925;29;7164;-65
2023/02/19 04:46:50;;;;;;;;;;;;;;;26.29;36.20;94827.66;4927243;29;9452;-65
2023/02/19 04:49:50;;;;;;;;;;;;;;;26.29;36.88;94822.91;4840689;29;8780;-65
2023/02/19 04:52:32;;;;;;;;;;;;;;;26.26;36.63;94823.91;4825726;29;9061;-65
2023/02/19 04:55:00;;;;;;;;;;;;;;;26.28;36.25;94823.38;4831689;29;8734;-65
2023/02/19 04:58:01;;;;;;;;;;;;;;;26.29;36.90;94824.91;4823240;29;9015;-65
2023/02/19 05:00:28;;;;;;;;;;;;;;;26.29;36.75;94833.94;4840659;29;9057;-65
2023/02/19 05:03:04;;;;;;;;;;;;;;;26.27;36.60;94830.94;4840010;29;9553;-65
2023/02/19 05:05:41;;;;;;;;;;;;;;;26.29;36.23;94838.69;4824844;29;7060;-65
2023/02/19 05:08:20;;;;;;;;;;;;;;;26.29;36.20;94855.25;4825018;29;8747;-66
2023/02/19 05:10:50;;;;;;;;;;;;;;;26.29;36.25;94867.03;4840015;29;9042;-65
2023/02/19 05:13:32;;;;;;;;;;;;;;;26.27;36.05;94866.78;4844769;29;7238;-65
2023/02/19 05:16:14;;;;;;;;;;;;;;;26.28;36.32;94862.00;4861190;29;7266;-65
2023/02/19 05:18:43;;;;;;;;;;;;;;;26.26;36.73;94870.78;4876336;29;7369;-65
2023/02/19 05:21:28;;;;;;;;;;;;;;;26.27;36.84;94871.53;4858815;29;9421;-66
2023/02/19 05:24:05;;;;;;;;;;;;;;;26.26;36.44;94859.00;4884936;29;8737;-65
2023/02/19 05:26:40;;;;;;;;;;;;;;;26.26;36.36;94867.25;4953883;28;8870;-65
2023/02/19 05:29:50;;;;;;;;;;;;;;;26.27;36.80;94869.53;4953739;28;9031;-65
2023/02/19 05:32:16;;;;;;;;;;;;;;;26.26;36.44;94872.78;4966890;28;9093;-65
2023/02/19 05:34:43;;;;;;;;;;;;;;;26.27;36.83;94868.78;4950761;28;8730;-65
2023/02/19 05:37:09;;;;;;;;;;;;;;;26.27;36.50;94871.53;4951840;28;7304;-65
2023/02/19 05:39:35;;;;;;;;;;;;;;;26.27;36.35;94869.53;4967193;28;9459;-65
2023/02/19 05:42:03;;;;;;;;;;;;;;;26.23;36.26;94879.31;4942228;28;7343;-65
2023/02/19 05:44:29;;;;;;;;;;;;;;;26.26;37.02;94878.28;4967056;28;7399;-65
2023/02/19 05:47:40;;;;;;;;;;;;;;;26.25;36.92;94876.81;4961110;28;9034;-65
2023/02/19 05:50:26;;;;;;;;;;;;;;;26.24;36.69;94875.28;4954632;28;7279;-65
2023/02/19 05:52:54;;;;;;;;;;;;;;;26.21;36.87;94873.56;4973395;28;8765;-65
2023/02/19 05:55:32;;;;;;;;;;;;;;;26.22;36.65;94880.56;4957109;28;9132;-65
2023/02/19 05:58:05;;;;;;;;;;;;;;;26.23;35.89;94880.03;4958211;28;9100;-65
2023/02/19 06:00:44;;;;;;;;;;;;;;;26.22;36.46;94877.81;4980803;28;9457;-65
2023/02/19 06:03:15;;;;;;;;;;;;;;;26.24;36.97;94880.81;4972938;28;9152;-65
2023/02/19 06:05:41;;;;;;;;;;;;;;;26.24;36.71;94884.31;4967136;28;7256;-65
2023/02/19 06:08:11;;;;;;;;;;;;;;;26.24;36.42;94887.06;4966472;28;9091;-65
2023/02/19 06:10:40;;;;;;;;;;;;;;;26.22;36.12;94888.84;4965188;28;9641;-66
2023/02/19 06:13:08;;;;;;;;;;;;;;;26.21;37.09;94887.34;4966276;28;7163;-66
2023/02/19 06:15:37;;;;;;;;;;;;;;;26.21;37.11;94887.34;4937931;28;9354;-65
2023/02/19 06:18:03;;;;;;;;;;;;;;;26.20;36.77;94886.59;4918962;29;9414;-66
2023/02/19 06:20:31;;;;;;;;;;;;;;;26.19;36.62;94890.59;4937502;28;8949;-65
2023/02/19 06:23:04;;;;;;;;;;;;;;;26.18;36.65;94894.63;4942372;28;7198;-65
2023/02/19 06:25:32;;;;;;;;;;;;;;;26.15;36.80;94899.13;4934427;29;9193;-66
2023/02/19 06:27:58;;;;;;;;;;;;;;;26.20;36.90;94902.38;4943142;28;8076;-66
2023/02/19 06:30:29;;;;;;;;;;;;;;;26.17;36.64;94915.91;4939164;28;9157;-65
2023/02/19 06:32:55;;;;;;;;;;;;;;;26.17;36.25;94918.66;4935448;28;9337;-65
2023/02/19 06:35:29;;;;;;;;;;;;;;;26.18;36.67;94922.19;4926953;29;9040;-66
2023/02/19 06:38:05;;;;;;;;;;;;;;;26.20;36.04;94910.63;4937867;28;7044;-66
2023/02/19 06:41:11;;;;;;;;;;;;;;;26.21;36.28;94909.41;4937027;29;7236;-66
2023/02/19 06:43:39;;;;;;;;;;;;;;;26.19;36.12;94914.66;4921423;29;7589;-65
2023/02/19 06:46:17;;;;;;;;;;;;;;;26.13;36.51;94920.94;4916296;29;8986;-66
2023/02/19 06:49:02;;;;;;;;;;;;;;;26.13;36.75;94926.44;4933437;29;7325;-66
2023/02/19 06:51:31;;;;;;;;;;;;;;;26.14;36.93;94940.97;4942355;28;8722;-66
2023/02/19 06:54:52;;;;;;;;;;;;;;;26.11;37.11;94939.97;4937626;29;9142;-65
2023/02/19 06:57:33;;;;;;;;;;;;;;;26.12;37.08;94958.00;4927576;29;7273;-65
2023/02/19 07:00:05;;;;;;;;;;;;;;;26.10;36.35;94959.75;4925741;29;7223;-66
2023/02/19 07:02:43;;;;;;;;;;;;;;;26.12;36.65;94977.31;4936529;29;9020;-65
2023/02/19 07:05:16;;;;;;;;;;;;;;;26.11;36.80;94980.56;4925514;29;7685;-66
2023/02/19 07:07:51;;;;;;;;;;;;;;;26.13;37.10;94984.34;4921092;29;7095;-65
2023/02/19 07:10:21;;;;;;;;;;;;;;;26.13;36.60;94978.06;4922276;29;7312;-65
2023/02/19 07:12:49;;;;;;;;;;;;;;;26.13;36.51;94981.59;4937400;28;9091;-66
2023/02/19 07:15:25;;;;;;;;;;;;;;;26.12;36.71;94991.09;4959456;28;9274;-65
2023/02/19 07:17:59;;;;;;;;;;;;;;;26.10;37.05;94998.34;4967811;28;9046;-65
2023/02/19 07:21:11;;;;;;;;;;;;;;;26.12;36.92;95010.38;4955860;28;9207;-65
2023/02/19 07:23:57;;;;;;;;;;;;;;;26.11;36.56;95022.69;4892628;29;9344;-65
2023/02/19 07:26:37;;;;;;;;;;;;;;;26.10;36.49;95020.41;4872049;29;8990;-65
2023/02/19 07:33:25;;;;;;;;;;;;;;;26.11;36.27;95028.19;4840606;29;6948;-65
2023/02/19 07:36:01;;;;;;;;;;;;;;;26.13;37.15;95024.94;4826045;29;7144;-66
2023/02/19 07:38:29;;;;;;;;;;;;;;;26.11;36.46;95032.97;4840833;29;6987;-65
2023/02/19 07:41:08;;;;;;;;;;;;;;;26.08;37.00;95036.66;4826000;29;7836;-65
2023/02/19 07:43:49;;;;;;;;;;;;;;;26.09;36.41;95036.22;4825414;29;9458;-66
2023/02/19 07:46:34;;;;;;;;;;;;;;;26.10;36.45;95048.72;4825822;29;9398;-66
2023/02/19 07:49:00;;;;;;;;;;;;;;;26.10;36.93;95048.72;4825745;29;9044;-65
2023/02/19 07:51:28;;;;;;;;;;;;;;;26.12;36.81;95056.53;4825818;29;7311;-65
2023/02/19 07:54:06;;;;;;;;;;;;;;;26.08;36.34;95051.25;4825644;29;6974;-65
2023/02/19 07:56:53;;;;;;;;;;;;;;;26.11;36.80;95064.03;4825481;29;9042;-65
2023/02/19 07:59:20;;;;;;;;;;;;;;;26.11;36.93;95066.03;4865354;29;8710;-66
2023/02/19 08:05:09;;;;;;;;;;;;;;;26.10;36.67;95067.28;4905071;29;7149;-65
2023/02/19 08:07:44;;;;;;;;;;;;;;;26.04;36.71;95064.50;4872013;29;7045;-65
2023/02/19 08:13:50;;;;;;;;;;;;;;;26.06;36.87;95077.78;4957602;28;9433;-65
2023/02/19 08:16:31;;;;;;;;;;;;;;;26.06;36.69;95080.53;4896991;29;6852;-66
2023/02/19 08:19:20;;;;;;;;;;;;;;;26.07;36.98;95082.03;4914137;29;7022;-66
2023/02/19 08:21:59;;;;;;;;;;;;;;;26.07;36.19;95088.31;4911962;29;9060;-65
2023/02/19 08:24:38;;;;;;;;;;;;;;;26.07;37.09;95093.84;4911708;29;7252;-65
2023/02/19 08:27:07;;;;;;;;;;;;;;;26.09;37.32;95087.84;4907036;29;9421;-66
2023/02/19 08:30:08;;;;;;;;;;;;;;;26.09;36.27;95085.09;4899234;29;8706;-65
2023/02/19 08:33:18;;;;;;;;;;;;;;;26.08;36.28;95089.84;4847617;29;7204;-65
2023/02/19 08:35:55;;;;;;;;;;;;;;;26.08;37.07;95098.09;4788532;29;9367;-65
2023/02/19 08:38:45;;;;;;;;;;;;;;;26.10;37.12;95094.84;4795327;29;9082;-65
2023/02/19 08:41:13;;;;;;;;;;;;;;;26.13;36.88;95100.13;4804041;29;9064;-65
2023/02/19 08:43:49;;;;;;;;;;;;;;;26.13;36.55;95097.38;4808339;29;6861;-65
2023/02/19 08:46:40;;;;;;;;;;;;;;;26.16;36.25;95112.91;4800225;29;7342;-65
2023/02/19 08:49:16;;;;;;;;;;;;;;;26.19;36.33;95104.91;4803754;29;7234;-65
2023/02/19 08:52:39;;;;;;;;;;;;;;;26.21;37.01;95114.19;4812365;29;7218;-65
2023/02/19 08:55:25;;;;;;;;;;;;;;;26.20;36.56;95111.94;4767765;30;9707;-65
2023/02/19 08:58:25;;;;;;;;;;;;;;;26.17;36.46;95106.16;4759362;30;9461;-65
2023/02/19 09:01:02;;;;;;;;;;;;;;;26.19;37.08;95111.16;4699898;30;7030;-65
2023/02/19 09:03:42;;;;;;;;;;;;;;;26.19;36.93;95108.41;4714729;30;7617;-65
2023/02/19 09:06:45;;;;;;;;;;;;;;;26.20;36.37;95114.69;4706566;30;9150;-65
2023/02/19 09:09:10;;;;;;;;;;;;;;;26.16;36.76;95110.16;4711167;30;7779;-65
2023/02/19 09:12:10;;;;;;;;;;;;;;;26.18;36.56;95115.19;4704470;30;9516;-65
2023/02/19 09:14:38;;;;;;;;;;;;;;;26.20;36.86;95109.16;4726206;30;7699;-65
2023/02/19 09:17:39;;;;;;;;;;;;;;;26.21;36.67;95113.44;4730311;30;9046;-65
2023/02/19 09:20:22;;;;;;;;;;;;;;;26.26;36.58;95120.97;4703221;30;8376;-65
2023/02/19 09:22:59;;;;;;;;;;;;;;;26.26;36.41;95109.94;4725573;30;7815;-65
2023/02/19 09:26:02;;;;;;;;;;;;;;;26.26;36.87;95113.44;4726499;30;7521;-65
2023/02/19 09:28:44;;;;;;;;;;;;;;;26.27;36.63;95105.94;4753159;30;7364;-65
2023/02/19 09:31:45;;;;;;;;;;;;;;;26.27;36.68;95112.22;4746780;30;7039;-65
2023/02/19 09:34:20;;;;;;;;;;;;;;;26.28;36.63;95113.69;4753531;30;8981;-65
2023/02/19 09:37:01;;;;;;;;;;;;;;;26.29;36.07;95111.69;4769404;29;9895;-65
2023/02/19 09:39:54;;;;;;;;;;;;;;;26.27;35.89;95108.69;4806872;29;7128;-65
2023/02/19 09:42:26;;;;;;;;;;;;;;;26.23;36.78;95106.16;4796138;29;8327;-66
2023/02/19 09:45:00;;;;;;;;;;;;;;;26.20;36.07;95095.38;4790790;29;9668;-65
2023/02/19 09:47:33;;;;;;;;;;;;;;;26.22;36.92;95106.66;4794438;29;7048;-65
2023/02/19 09:50:08;;;;;;;;;;;;;;;26.19;36.88;95113.19;4810783;29;7087;-65
2023/02/19 09:52:57;;;;;;;;;;;;;;;26.16;36.15;95101.88;4840943;29;7134;-65
2023/02/19 09:55:35;;;;;;;;;;;;;;;26.14;36.96;95114.69;4879462;28;7236;-65
2023/02/19 09:58:32;;;;;;;;;;;;;;;26.13;37.10;95102.13;4954938;28;7045;-65
2023/02/19 10:01:02;;;;;;;;;;;;;;;26.12;36.42;95106.88;4960543;28;7042;-65
2023/02/19 10:03:38;;;;;;;;;;;;;;;26.15;36.59;95116.19;4953253;28;6962;-65
2023/02/19 10:06:19;;;;;;;;;;;;;;;26.11;37.29;95113.66;4957606;28;7167;-65
2023/02/19 10:09:12;;;;;;;;;;;;;;;26.12;36.50;95106.88;4949377;28;7375;-65
2023/02/19 10:11:39;;;;;;;;;;;;;;;26.11;37.08;95107.41;4966107;28;9411;-66
2023/02/19 10:14:14;;;;;;;;;;;;;;;26.12;36.51;95106.88;4967793;28;7200;-65
2023/02/19 10:16:47;;;;;;;;;;;;;;;26.13;37.01;95111.16;4957456;28;8357;-66
2023/02/19 10:19:14;;;;;;;;;;;;;;;26.11;36.92;95110.91;4950253;28;7053;-65
2023/02/19 10:21:43;;;;;;;;;;;;;;;26.09;36.58;95113.41;4953076;28;9320;-65
2023/02/19 10:24:22;;;;;;;;;;;;;;;26.10;36.89;95114.16;4953545;28;9082;-65
2023/02/19 10:26:49;;;;;;;;;;;;;;;26.07;36.70;95109.63;4943865;28;9213;-65
2023/02/19 10:29:16;;;;;;;;;;;;;;;26.08;37.15;95113.84;4952552;28;9543;-66
2023/02/19 10:31:43;;;;;;;;;;;;;;;26.09;37.09;95112.66;4968400;28;7299;-66
2023/02/19 10:34:18;;;;;;;;;;;;;;;26.07;36.67;95115.88;4954107;28;9029;-65
2023/02/19 10:36:49;;;;;;;;;;;;;;;26.08;36.39;95114.66;4961177;28;9122;-66
2023/02/19 10:40:11;;;;;;;;;;;;;;;26.07;36.71;95112.38;4951673;28;7454;-65
2023/02/19 10:42:58;;;;;;;;;;;;;;;26.07;36.44;95115.13;4909133;29;7207;-65
2023/02/19 10:45:51;;;;;;;;;;;;;;;26.08;37.05;95111.91;4914956;29;8728;-65
2023/02/19 10:48:39;;;;;;;;;;;;;;;26.07;37.25;95110.38;4915821;29;7033;-66
2023/02/19 10:51:09;;;;;;;;;;;;;;;26.07;36.31;95110.38;4906926;29;7023;-65
2023/02/19 10:53:48;;;;;;;;;;;;;;;26.06;36.40;95106.09;4908313;29;8994;-65
2023/02/19 10:56:37;;;;;;;;;;;;;;;26.09;37.09;95105.16;4907541;29;7276;-65
2023/02/19 10:59:27;;;;;;;;;;;;;;;26.09;36.25;95107.91;4905958;29;8426;-65
2023/02/19 11:02:17;;;;;;;;;;;;;;;26.08;36.37;95100.88;4903487;29;8276;-65
2023/02/19 11:05:17;;;;;;;;;;;;;;;26.05;37.11;95101.84;4882755;29;9344;-65
2023/02/19 11:07:53;;;;;;;;;;;;;;;26.07;37.23;95110.38;4904529;29;7235;-65
2023/02/19 11:10:33;;;;;;;;;;;;;;;26.08;36.31;95105.59;4913143;29;9417;-65
2023/02/19 11:13:05;;;;;;;;;;;;;;;26.08;36.99;95103.63;4913009;29;7049;-66
2023/02/19 11:15:34;;;;;;;;;;;;;;;26.08;36.45;95095.34;4899288;28;8860;-66
2023/02/19 11:18:15;;;;;;;;;;;;;;;26.07;36.39;95102.09;4968236;28;7545;-66
2023/02/19 11:20:50;;;;;;;;;;;;;;;26.09;36.82;95105.16;4960511;28;7259;-66
2023/02/19 11:23:23;;;;;;;;;;;;;;;26.09;37.14;95101.63;4968552;28;7000;-66
2023/02/19 11:26:22;;;;;;;;;;;;;;;26.09;36.97;95091.34;4962327;28;7129;-65
2023/02/19 11:29:18;;;;;;;;;;;;;;;26.11;36.56;95088.84;4916570;29;8975;-66
2023/02/19 11:31:53;;;;;;;;;;;;;;;26.13;36.71;95088.34;4919359;29;7049;-65
2023/02/19 11:34:51;;;;;;;;;;;;;;;26.14;36.65;95076.81;4934664;29;7004;-66
2023/02/19 11:37:59;;;;;;;;;;;;;;;26.16;37.23;95077.06;4929665;29;9065;-66
2023/02/19 11:41:12;;;;;;;;;;;;;;;26.16;37.08;95079.81;4916150;29;8612;-66
2023/02/19 11:44:24;;;;;;;;;;;;;;;26.19;36.49;95082.88;4916622;29;9022;-66
2023/02/19 11:47:28;;;;;;;;;;;;;;;26.14;37.08;95079.56;4919397;29;7050;-66
2023/02/19 11:50:35;;;;;;;;;;;;;;;26.21;36.31;95077.59;4924875;29;7265;-66
2023/02/19 11:53:48;;;;;;;;;;;;;;;26.22;37.12;95084.59;4925502;29;7304;-66
2023/02/19 11:57:04;;;;;;;;;;;;;;;26.20;36.77;95089.88;4925402;29;7018;-66
2023/02/19 12:00:27;;;;;;;;;;;;;;;26.20;36.41;95089.88;4921566;29;7310;-66
2023/02/19 12:03:40;;;;;;;;;;;;;;;26.19;37.03;95088.38;4825595;29;7503;-66
2023/02/19 12:06:45;;;;;;;;;;;;;;;26.09;37.14;95080.31;4859462;29;7015;-66
2023/02/19 12:09:42;;;;;;;;;;;;;;;26.15;36.58;95083.09;4867385;29;7376;-66
2023/02/19 12:13:02;;;;;;;;;;;;;;;26.17;36.14;95089.63;4828024;29;6993;-66
2023/02/19 12:15:36;;;;;;;;;;;;;;;26.14;36.87;95082.31;4814380;29;8905;-66
2023/02/19 12:18:13;;;;;;;;;;;;;;;26.13;37.06;95077.31;4831252;29;7439;-66
2023/02/19 12:20:49;;;;;;;;;;;;;;;26.14;36.90;95074.06;4824630;29;9042;-66
2023/02/19 12:23:53;;;;;;;;;;;;;;;26.13;37.26;95075.31;4827247;29;9356;-66
2023/02/19 12:26:45;;;;;;;;;;;;;;;26.15;36.64;95078.34;4812814;29;8963;-65
2023/02/19 12:29:39;;;;;;;;;;;;;;;26.13;36.74;95074.56;4818037;29;8501;-65
2023/02/19 12:32:11;;;;;;;;;;;;;;;26.14;36.53;95074.06;4804557;29;9073;-66
2023/02/19 12:34:49;;;;;;;;;;;;;;;26.14;36.34;95068.53;4817423;29;7123;-66
2023/02/19 12:37:16;;;;;;;;;;;;;;;26.14;37.17;95065.06;4869224;29;7032;-66
2023/02/19 12:39:47;;;;;;;;;;;;;;;26.14;37.20;95063.03;4894827;29;9065;-66
2023/02/19 12:42:37;;;;;;;;;;;;;;;26.14;36.87;95068.53;4907102;29;7079;-66
2023/02/19 12:45:51;;;;;;;;;;;;;;;26.10;36.50;95057.00;4903093;29;7082;-66
2023/02/19 12:48:46;;;;;;;;;;;;;;;26.10;37.20;95070.78;4929399;29;7258;-66
2023/02/19 12:51:36;;;;;;;;;;;;;;;26.11;36.67;95069.56;4970225;28;7309;-66
2023/02/19 12:54:31;;;;;;;;;;;;;;;26.11;37.30;95066.78;4960743;28;7128;-66
2023/02/19 12:57:24;;;;;;;;;;;;;;;26.09;37.12;95072.06;4955665;28;7067;-66
2023/02/19 13:00:42;;;;;;;;;;;;;;;26.08;37.55;95065.03;4959208;28;9020;-66
2023/02/19 13:03:58;;;;;;;;;;;;;;;26.12;37.25;95067.56;4898262;29;7243;-66
2023/02/19 13:07:07;;;;;;;;;;;;;;;26.12;37.37;95068.28;4907874;29;8684;-65
2023/02/19 13:10:27;;;;;;;;;;;;;;;26.16;36.73;95074.31;4907815;29;8987;-66
2023/02/19 13:13:18;;;;;;;;;;;;;;;26.14;37.24;95082.31;4853940;29;7078;-66
2023/02/19 13:16:08;;;;;;;;;;;;;;;26.16;37.06;95087.38;4857992;29;7030;-66
2023/02/19 13:18:58;;;;;;;;;;;;;;;26.17;36.34;95089.63;4862135;29;8920;-66
2023/02/19 13:24:32;;;;;;;;;;;;;;;26.16;36.74;95095.63;4861683;29;7181;-66
2023/02/19 13:27:36;;;;;;;;;;;;;;;26.16;36.39;95088.09;4853613;29;7238;-66
2023/02/19 13:30:48;;;;;;;;;;;;;;;26.14;36.07;95093.34;4858247;29;9136;-68
2023/02/19 13:33:45;;;;;;;;;;;;;;;26.14;36.78;95093.34;4856246;29;7033;-66
2023/02/19 13:36:27;;;;;;;;;;;;;;;26.11;36.19;95097.13;4849063;29;9071;-66
2023/02/19 13:39:36;;;;;;;;;;;;;;;26.12;36.58;95097.88;4873914;29;9173;-66
2023/02/19 13:42:34;;;;;;;;;;;;;;;26.11;37.00;95099.13;4879002;29;7287;-66
2023/02/19 13:45:41;;;;;;;;;;;;;;;26.11;36.25;95099.88;4798546;29;9453;-66
2023/02/19 13:48:30;;;;;;;;;;;;;;;26.12;36.37;95100.66;4878554;29;7205;-66
2023/02/19 13:51:14;;;;;;;;;;;;;;;26.11;36.34;95099.88;4895125;29;8933;-66
2023/02/19 13:54:01;;;;;;;;;;;;;;;26.11;36.90;95094.38;4877722;29;9115;-66
2023/02/19 13:56:43;;;;;;;;;;;;;;;26.10;36.18;95079.06;4878314;29;9246;-66
2023/02/19 13:59:47;;;;;;;;;;;;;;;26.09;36.29;95091.34;4887769;29;7025;-66
2023/02/19 14:02:20;;;;;;;;;;;;;;;26.10;37.14;95081.81;4873915;29;8245;-66
2023/02/19 14:05:09;;;;;;;;;;;;;;;26.08;36.36;95095.34;4879002;29;8880;-66
2023/02/19 14:07:46;;;;;;;;;;;;;;;26.05;36.40;95090.06;4878690;29;9366;-65
2023/02/19 14:10:50;;;;;;;;;;;;;;;26.06;36.30;95097.06;4881853;29;9017;-66
2023/02/19 14:13:50;;;;;;;;;;;;;;;26.07;36.83;95080.03;4886813;29;9038;-66
2023/02/19 14:16:36;;;;;;;;;;;;;;;26.07;37.09;95082.81;4887628;29;7002;-66
2023/02/19 14:19:13;;;;;;;;;;;;;;;26.08;36.22;95083.53;4881427;29;9731;-66
2023/02/19 14:21:42;;;;;;;;;;;;;;;26.07;36.44;95088.31;4921284;28;7317;-66
2023/02/19 14:24:15;;;;;;;;;;;;;;;26.03;36.93;95087.78;4971683;28;9049;-66
2023/02/19 14:26:42;;;;;;;;;;;;;;;26.07;36.29;95084.81;4969553;28;7363;-66
2023/02/19 14:29:15;;;;;;;;;;;;;;;26.07;36.34;95076.53;4955507;28;8973;-66
2023/02/19 14:31:47;;;;;;;;;;;;;;;26.09;36.54;95074.81;4968801;28;8016;-65
2023/02/19 14:34:26;;;;;;;;;;;;;;;26.08;37.08;95073.28;4953523;28;7167;-66
2023/02/19 14:36:59;;;;;;;;;;;;;;;26.05;37.23;95068.75;4968715;28;9414;-66
2023/02/19 14:39:39;;;;;;;;;;;;;;;26.07;36.67;95077.28;4968255;28;7285;-66
2023/02/19 14:42:14;;;;;;;;;;;;;;;26.09;36.22;95083.09;4968418;28;7303;-66
2023/02/19 14:44:57;;;;;;;;;;;;;;;26.05;36.82;95074.28;4956237;28;7048;-66
2023/02/19 14:47:29;;;;;;;;;;;;;;;26.07;36.86;95085.56;4960228;28;7023;-66
2023/02/19 14:50:08;;;;;;;;;;;;;;;26.09;37.13;95082.31;4947602;28;8186;-65
2023/02/19 14:52:48;;;;;;;;;;;;;;;26.07;36.70;95085.56;4955318;28;7236;-66
2023/02/19 14:55:41;;;;;;;;;;;;;;;26.07;36.68;95082.81;4960039;28;7230;-66
2023/02/19 14:58:17;;;;;;;;;;;;;;;26.06;36.46;95073.00;4948620;28;7250;-66
2023/02/19 15:00:59;;;;;;;;;;;;;;;26.06;36.23;95086.81;4956523;28;7024;-65
2023/02/19 15:03:31;;;;;;;;;;;;;;;26.07;36.65;95088.31;4951877;28;7065;-66
2023/02/19 15:06:11;;;;;;;;;;;;;;;26.07;36.71;95082.81;4969402;28;7247;-66